Jamestwn, North Dakota
Current Conditions -  °F | °C
As of 11:56 PM on Sunday 25 Jan 2015 (Local Time) from KJMS Reporting Station
Broken Clouds Broken Clouds  
Wind Chill: 29°   Ceiling: 10000
Heat Index: 36°   Visibility: 10mi
Dew Point: 29°   Wind: 9mph
Humidity: 76%   Direction: 220°SW
Pressure: 29.7"   Gusts: NA
Location:  46.9109°N, 98.7082°W
Report Text: KJMS 260556Z AUTO 22008KT 10SM BKN100 02/M02 A2970 RMK AO2 PRESFR SLP075 T00221017 10022 21017 400221072 56036
Loading
Personal Weather Stations






























Interactive Weather Map New forecast layout! Learn more

10-Day Weather Forecast

Advertisements
Track Severe Weather on mobile